CW6020 Teulada ES current weather conditions

sailwx.info

Wind from 135

Air temperature 27.2° C
Dewpoint 15.6° C

Last reported at 2016-May-25 17:51 UTC.
Time now 2016-May-25 18:52 UTC

Location: N 38°44' E 000°06'.
View on Google Maps.

See reports from other nearby stations

  
Tides and Currents Weather Stations Pressure Air Temp Water Temp Dewpoint Dewpoint Depression Visibility Wind Speed Wind Dir Waves Ship Positions
date/time (UTC)wind fromknots sea level pressurealtimeterstation pressurevisibilityair tempwater tempwave heightnotes
2016-May-25 17:51 135 27.2
2016-May-25 17:41 135 26.7
2016-May-25 17:31 270 0 gusting 1 26.7
2016-May-25 17:21 180 0 gusting 2 26.7
2016-May-25 17:11 135 0 gusting 1 26.7
2016-May-25 17:01 180 0 gusting 2 26.7
2016-May-25 16:51 180 2 gusting 3 26.7
2016-May-25 16:41 225 2 gusting 5 26.7
2016-May-25 16:31 225 2 gusting 4 26.7
2016-May-25 16:21 180 2 gusting 6 26.7
2016-May-25 16:11 180 2 gusting 4 26.7
2016-May-25 16:01 225 3 gusting 5 26.7
2016-May-25 15:51 135 2 gusting 5 27.2
2016-May-25 15:41 135 4 gusting 7 27.2
2016-May-25 15:31 135 1 gusting 3 27.2
2016-May-25 15:21 225 2 gusting 3 26.7
2016-May-25 15:11 135 1 gusting 2 26.7
2016-May-25 15:01 135 1 gusting 2 26.7
2016-May-25 14:51 135 3 gusting 5 26.7
2016-May-25 14:41 090 3 gusting 5 26.1
2016-May-25 14:31 135 2 gusting 4 26.1
2016-May-25 14:21 090 2 gusting 4 26.1
2016-May-25 14:11 135 2 gusting 4 26.1
2016-May-25 14:01 135 2 gusting 5 25.6
2016-May-25 13:51 180 2 gusting 4 25.6
2016-May-25 13:41 225 3 gusting 5 25.6
2016-May-25 13:31 180 3 gusting 6 25.6
2016-May-25 13:21 135 2 gusting 5 25.0
2016-May-25 13:11 135 2 gusting 4 25.0
2016-May-25 13:01 315 1 gusting 3 25.0
2016-May-25 12:51 135 2 gusting 4 25.0
2016-May-25 12:41 180 3 gusting 6 24.4
2016-May-25 12:31 180 2 gusting 6 24.4
2016-May-25 12:21 090 4 gusting 6 24.4
2016-May-25 12:11 135 2 gusting 4 24.4
2016-May-25 12:01 180 4 gusting 6 23.9
2016-May-25 11:51 157 4 gusting 6 23.9
2016-May-25 11:41 090 4 gusting 6 23.9
2016-May-25 11:31 135 2 gusting 4 23.9
2016-May-25 11:21 135 2 gusting 5 23.9
2016-May-25 11:11 135 2 gusting 5 23.9
2016-May-25 11:01 180 4 gusting 6 23.9
2016-May-25 10:51 135 2 gusting 5 23.9
2016-May-25 10:41 180 2 gusting 5 23.3
2016-May-25 10:31 225 3 gusting 5 23.3
2016-May-25 10:21 135 2 gusting 5 23.3
2016-May-25 10:11 180 2 gusting 4 23.3
2016-May-25 10:01 180 2 gusting 5 22.8
2016-May-25 09:51 180 4 gusting 6 22.8
2016-May-25 09:41 180 2 gusting 4 22.8
2016-May-25 09:31 135 2 gusting 5 22.2
2016-May-25 09:21 135 2 gusting 3 22.2
2016-May-25 09:06 135 2 gusting 6 21.7
2016-May-25 08:56 225 2 gusting 3 21.1
2016-May-25 08:46 135 2 gusting 3 21.1
2016-May-25 08:36 135 1 gusting 2 20.6
2016-May-25 08:26 135 1 gusting 3 20.6
2016-May-25 08:16 180 1 gusting 2 20.0
2016-May-25 08:06 135 20.0
2016-May-25 07:56 135 19.4
2016-May-25 07:46 135 0 gusting 2 18.9
2016-May-25 07:36 18.3
2016-May-25 07:26 270 18.3
2016-May-25 07:16 135 17.8
2016-May-25 07:06 225 17.8
2016-May-25 06:56 17.2
2016-May-25 06:46 17.2
2016-May-25 06:36 17.2
2016-May-25 06:26 135 17.2
2016-May-25 06:16 135 0 gusting 1 16.7
2016-May-25 06:06 135 16.7
2016-May-25 05:56 16.7
2016-May-25 05:46 225 16.1
2016-May-25 05:36 16.1
2016-May-25 05:21 16.1
2016-May-25 05:11 16.1
2016-May-25 05:01 16.1
2016-May-25 04:51 16.1
2016-May-25 04:41 16.1
2016-May-25 04:31 16.1
2016-May-25 04:21 16.1
2016-May-25 04:11 15.6
2016-May-25 04:01 15.6
2016-May-25 03:46 15.6
2016-May-25 03:36 15.6
2016-May-25 03:26 15.6
2016-May-25 03:16 15.6
2016-May-25 03:06 15.6
2016-May-25 02:56 15.6
2016-May-25 02:46 15.6
2016-May-25 02:36 15.6
2016-May-25 02:21 15.6
2016-May-25 02:11 15.6
2016-May-25 02:01 15.6
2016-May-25 01:51 15.6
2016-May-25 01:41 15.6
2016-May-25 01:31 15.6
2016-May-25 01:21 15.6
2016-May-25 01:06 15.6
2016-May-25 00:56 15.6
2016-May-25 00:46 15.6
2016-May-25 00:36 15.6
2016-May-25 00:26 15.6
2016-May-25 00:16 16.1
2016-May-25 00:06 16.1
2016-May-24 23:56 16.1
2016-May-24 23:46 16.7
2016-May-24 23:36 16.7
2016-May-24 23:26 16.7
2016-May-24 23:16 16.7
2016-May-24 23:01 16.7
2016-May-24 22:46 17.2
2016-May-24 22:36 17.2
2016-May-24 22:26 17.2
2016-May-24 22:16 270 17.2
2016-May-24 22:06 17.2
2016-May-24 21:56 17.2
2016-May-24 21:46 270 17.8
2016-May-24 21:36 225 17.8
2016-May-24 21:26 17.8
2016-May-24 21:16 225 17.8
2016-May-24 21:06 225 17.8
2016-May-24 20:56 225 0 gusting 2 17.8
2016-May-24 20:46 225 2 gusting 3 17.8
2016-May-24 20:36 270 0 gusting 1 17.8
2016-May-24 20:26 135 0 gusting 1 17.8
2016-May-24 20:16 135 0 gusting 2 17.8
2016-May-24 20:06 292 2 gusting 4 18.3
2016-May-24 19:56 180 1 gusting 3 18.3
2016-May-24 19:46 135 1 gusting 3 18.3
2016-May-24 19:36 180 2 gusting 4 18.3
2016-May-24 19:26 180 2 gusting 4 18.3
2016-May-24 19:16 270 3 gusting 5 18.9
2016-May-24 19:06 315 2 gusting 5 18.9
2016-May-24 18:56 135 5 gusting 6 19.4
2016-May-24 18:46 225 2 gusting 5 20.0
2016-May-24 18:36 270 2 gusting 5 20.0
2016-May-24 18:26 180 5 gusting 6 20.0
2016-May-24 18:16 135 5 gusting 7 20.6
2016-May-24 18:06 270 4 gusting 6 20.6
2016-May-24 17:56 315 4 gusting 6 20.6
2016-May-24 17:46 135 3 gusting 7 21.1
2016-May-24 17:36 180 4 gusting 6 21.1
2016-May-24 17:27 315 5 gusting 8 21.7
2016-May-24 17:16 180 5 gusting 7 21.7
2016-May-24 17:06 135 2 gusting 4 21.7
2016-May-24 16:56 225 4 gusting 5 22.2
2016-May-24 16:46 180 5 gusting 9 22.8
2016-May-24 16:36 180 4 gusting 6 22.8
2016-May-24 16:26 135 3 gusting 6 22.8
2016-May-24 16:16 22.8
2016-May-24 16:06 180 4 gusting 6 23.3
2016-May-24 15:56 180 3 gusting 7 23.3
2016-May-24 15:46 180 6 gusting 8 23.3
2016-May-24 15:36 135 3 gusting 5 23.9
2016-May-24 15:26 180 4 gusting 7 23.3
2016-May-24 15:16 180 6 gusting 7 23.3
2016-May-24 15:06 135 4 gusting 6 23.3
2016-May-24 14:56 135 2 gusting 7 23.3
2016-May-24 14:46 180 4 gusting 6 23.9
2016-May-24 14:36 225 6 gusting 8 23.9
2016-May-24 14:26 135 4 gusting 6 24.4
2016-May-24 14:16 180 4 gusting 7 24.4
2016-May-24 14:06 135 5 gusting 7 23.9
2016-May-24 13:56 180 2 gusting 7 23.9
2016-May-24 13:46 135 4 gusting 8 23.9
2016-May-24 13:36 180 6 gusting 9 23.3
2016-May-24 13:26 225 6 gusting 10 23.3
2016-May-24 13:16 180 5 gusting 7 23.3
2016-May-24 13:06 090 6 gusting 10 23.9
2016-May-24 12:56 180 5 gusting 9 23.9
2016-May-24 12:46 225 3 gusting 6 23.3
2016-May-24 12:36 045 5 gusting 9 23.9
2016-May-24 12:26 090 6 gusting 10 23.9
2016-May-24 12:16 180 6 gusting 9 23.9
2016-May-24 12:06 225 6 gusting 10 23.3
2016-May-24 11:56 202 5 gusting 11 23.3
2016-May-24 11:46 225 7 gusting 10 23.3
2016-May-24 11:36 135 4 gusting 6 22.8
2016-May-24 11:26 135 4 gusting 6 22.8
2016-May-24 11:16 090 4 gusting 7 22.8
2016-May-24 11:06 180 5 gusting 7 22.2
2016-May-24 10:56 135 5 gusting 6 22.2
2016-May-24 10:46 135 5 gusting 7 22.2
2016-May-24 10:36 180 4 gusting 8 22.2
2016-May-24 10:26 225 4 gusting 5 22.2
2016-May-24 10:16 135 2 gusting 4 21.7
2016-May-24 10:06 180 4 gusting 5 21.1
2016-May-24 09:56 180 2 gusting 4 21.1
2016-May-24 09:46 225 2 gusting 6 20.6
2016-May-24 09:36 135 3 gusting 6 20.6
2016-May-24 09:26 180 2 gusting 5 20.6
2016-May-24 09:16 20.6
2016-May-24 09:01 135 5 gusting 7 20.0
2016-May-24 08:51 180 4 gusting 7 20.0
2016-May-24 08:41 180 4 gusting 5 20.0
2016-May-24 08:31 180 3 gusting 5 20.0
2016-May-24 08:21 270 2 gusting 5 19.4
2016-May-24 08:11 090 2 gusting 5 18.9
2016-May-24 08:01 180 4 gusting 7 18.9
2016-May-24 07:51 180 2 gusting 2 18.3
2016-May-24 07:41 112 1 gusting 4 17.8
2016-May-24 07:31 135 2 gusting 4 17.2
2016-May-24 07:21 202 1 gusting 2 16.7
2016-May-24 07:11 090 0 gusting 2 16.1
2016-May-24 07:01 135 15.6
2016-May-24 06:51 15.0
2016-May-24 06:41 14.4
2016-May-24 06:31 13.9
2016-May-24 06:21 13.9
2016-May-24 06:06 13.3
2016-May-24 05:56 12.8
2016-May-24 05:46 12.8
2016-May-24 05:36 12.8
2016-May-24 05:26 12.8
2016-May-24 05:16 12.8
2016-May-24 05:06 12.8
2016-May-24 04:56 12.8
2016-May-24 04:46 12.8
2016-May-24 04:36 13.3
2016-May-24 04:26 13.3
2016-May-24 04:16 13.9
2016-May-24 04:01 13.9
2016-May-24 03:51 14.4
2016-May-24 03:41 14.4
2016-May-24 03:31 14.4
2016-May-24 03:21 15.0
2016-May-24 03:11 15.0
2016-May-24 03:01 045 15.0
2016-May-24 02:46 045 15.6
2016-May-24 02:36 15.6
2016-May-24 02:26 15.6
2016-May-24 02:16 315 0 gusting 2 15.6
2016-May-24 02:06 022 15.6
2016-May-24 01:56 15.6
2016-May-24 01:46 270 15.6
2016-May-24 01:36 315 1 gusting 2 15.6
2016-May-24 01:26 16.1
2016-May-24 01:16 16.1
2016-May-24 01:06 225 2 gusting 2 16.1
2016-May-24 00:56 045 0 gusting 2 16.1
2016-May-24 00:46 16.1
2016-May-24 00:36 225 16.1
2016-May-24 00:26 16.1
2016-May-24 00:16 16.1
2016-May-24 00:01 225 16.1
2016-May-23 23:46 16.7
2016-May-23 23:36 225 16.7
2016-May-23 23:26 16.7
2016-May-23 23:16 225 16.7
2016-May-23 23:06 16.7
2016-May-23 22:56 225 16.7
2016-May-23 22:46 16.7
2016-May-23 22:36 16.7
2016-May-23 22:26 225 1 gusting 2 16.7
2016-May-23 22:16 225 0 gusting 2 16.7
2016-May-23 22:06 225 0 gusting 1 16.7
2016-May-23 21:56 225 0 gusting 2 16.7
2016-May-23 21:46 135 1 gusting 2 16.7
2016-May-23 21:36 270 2 gusting 5 16.7
2016-May-23 21:21 225 0 gusting 1 16.7
2016-May-23 21:11 225 0 gusting 2 16.7
2016-May-23 21:01 225 0 gusting 2 16.7
2016-May-23 20:46 270 16.7
2016-May-23 20:36 225 1 gusting 2 16.7
2016-May-23 20:26 225 2 gusting 2 16.7
2016-May-23 20:16 135 2 gusting 5 16.7
2016-May-23 20:06 180 2 gusting 4 17.2
2016-May-23 19:56 270 1 gusting 4 17.2
2016-May-23 19:46 225 0 gusting 2 17.2
2016-May-23 19:36 180 2 gusting 4 17.2
2016-May-23 19:26 225 2 gusting 4 17.2
2016-May-23 19:16 225 1 gusting 2 17.8
2016-May-23 19:06 180 1 gusting 2 17.8
2016-May-23 18:56 180 2 gusting 3 17.8
2016-May-23 18:46 225 3 gusting 6 18.3
2016-May-23 18:36 180 2 gusting 4 18.3
2016-May-23 18:26 270 2 gusting 5 18.9
2016-May-23 18:16 225 4 gusting 6 18.3
2016-May-23 18:06 180 4 gusting 7 18.9